sensor_id;sensor_type;location;lat;lon;timestamp;pressure;altitude;pressure_sealevel;temperature;humidity
34034;BME280;63481;52.588;22.472;2023-04-07T00:00:12;100104.52;;;4.68;100.00
34034;BME280;63481;52.588;22.472;2023-04-07T00:01:22;100104.33;;;4.68;100.00
34034;BME280;63481;52.588;22.472;2023-04-07T00:02:14;100102.92;;;4.67;100.00
34034;BME280;63481;52.588;22.472;2023-04-07T00:03:07;100106.61;;;4.68;100.00
34034;BME280;63481;52.588;22.472;2023-04-07T00:04:00;100104.79;;;4.73;100.00
34034;BME280;63481;52.588;22.472;2023-04-07T00:04:53;100105.20;;;4.71;100.00
34034;BME280;63481;52.588;22.472;2023-04-07T00:05:46;100105.05;;;4.71;100.00
34034;BME280;63481;52.588;22.472;2023-04-07T00:06:39;100105.45;;;4.77;100.00
34034;BME280;63481;52.588;22.472;2023-04-07T00:07:31;100106.98;;;4.79;100.00
34034;BME280;63481;52.588;22.472;2023-04-07T00:08:24;100102.48;;;4.82;100.00
34034;BME280;63481;52.588;22.472;2023-04-07T00:09:17;100100.77;;;4.83;100.00
34034;BME280;63481;52.588;22.472;2023-04-07T00:10:09;100101.23;;;4.84;100.00
34034;BME280;63481;52.588;22.472;2023-04-07T00:11:02;100097.54;;;4.86;100.00
34034;BME280;63481;52.588;22.472;2023-04-07T00:11:55;100094.70;;;4.88;100.00
34034;BME280;63481;52.588;22.472;2023-04-07T00:12:48;100095.48;;;4.91;100.00
34034;BME280;63481;52.588;22.472;2023-04-07T00:13:40;100097.14;;;4.95;100.00
34034;BME280;63481;52.588;22.472;2023-04-07T00:14:33;100096.52;;;4.95;100.00
34034;BME280;63481;52.588;22.472;2023-04-07T00:15:26;100096.45;;;4.94;100.00
34034;BME280;63481;52.588;22.472;2023-04-07T00:16:18;100096.88;;;4.94;100.00
34034;BME280;63481;52.588;22.472;2023-04-07T00:17:12;100095.39;;;4.93;100.00
34034;BME280;63481;52.588;22.472;2023-04-07T00:18:05;100095.60;;;4.95;100.00
34034;BME280;63481;52.588;22.472;2023-04-07T00:18:58;100092.88;;;4.93;100.00
34034;BME280;63481;52.588;22.472;2023-04-07T00:19:52;100093.64;;;4.94;100.00
34034;BME280;63481;52.588;22.472;2023-04-07T00:20:45;100094.37;;;4.94;100.00
34034;BME280;63481;52.588;22.472;2023-04-07T00:21:38;100089.73;;;4.95;100.00
34034;BME280;63481;52.588;22.472;2023-04-07T00:22:32;100099.15;;;4.94;100.00
34034;BME280;63481;52.588;22.472;2023-04-07T00:23:25;100097.79;;;4.97;100.00
34034;BME280;63481;52.588;22.472;2023-04-07T00:24:19;100097.14;;;4.99;100.00
34034;BME280;63481;52.588;22.472;2023-04-07T00:25:12;100091.68;;;5.01;100.00
34034;BME280;63481;52.588;22.472;2023-04-07T00:26:06;100091.15;;;4.96;100.00
34034;BME280;63481;52.588;22.472;2023-04-07T00:26:59;100088.54;;;4.96;100.00
34034;BME280;63481;52.588;22.472;2023-04-07T00:27:52;100089.59;;;4.97;100.00
34034;BME280;63481;52.588;22.472;2023-04-07T00:28:46;100090.59;;;4.96;100.00
34034;BME280;63481;52.588;22.472;2023-04-07T00:29:40;100089.89;;;4.96;100.00
34034;BME280;63481;52.588;22.472;2023-04-07T00:30:35;100086.54;;;4.98;100.00
34034;BME280;63481;52.588;22.472;2023-04-07T00:31:29;100085.64;;;4.99;100.00
34034;BME280;63481;52.588;22.472;2023-04-07T00:32:22;100088.39;;;5.05;100.00
34034;BME280;63481;52.588;22.472;2023-04-07T00:33:16;100083.96;;;5.05;100.00
34034;BME280;63481;52.588;22.472;2023-04-07T00:34:09;100085.54;;;5.05;100.00
34034;BME280;63481;52.588;22.472;2023-04-07T00:35:02;100084.95;;;5.05;100.00
34034;BME280;63481;52.588;22.472;2023-04-07T00:35:56;100080.30;;;5.05;100.00
34034;BME280;63481;52.588;22.472;2023-04-07T00:36:50;100081.75;;;5.04;100.00
34034;BME280;63481;52.588;22.472;2023-04-07T00:37:44;100081.44;;;5.07;100.00
34034;BME280;63481;52.588;22.472;2023-04-07T00:38:37;100079.80;;;5.09;100.00
34034;BME280;63481;52.588;22.472;2023-04-07T00:39:31;100080.56;;;5.08;100.00
34034;BME280;63481;52.588;22.472;2023-04-07T00:40:25;100074.62;;;5.08;100.00
34034;BME280;63481;52.588;22.472;2023-04-07T00:41:18;100077.39;;;5.08;100.00
34034;BME280;63481;52.588;22.472;2023-04-07T00:42:12;100078.56;;;5.07;100.00
34034;BME280;63481;52.588;22.472;2023-04-07T00:43:05;100080.64;;;5.08;100.00
34034;BME280;63481;52.588;22.472;2023-04-07T00:43:59;100078.55;;;5.05;100.00
34034;BME280;63481;52.588;22.472;2023-04-07T00:44:52;100078.70;;;5.11;100.00
34034;BME280;63481;52.588;22.472;2023-04-07T00:45:47;100074.98;;;5.11;100.00
34034;BME280;63481;52.588;22.472;2023-04-07T00:46:40;100073.80;;;5.07;100.00
34034;BME280;63481;52.588;22.472;2023-04-07T00:47:34;100073.30;;;5.07;100.00
34034;BME280;63481;52.588;22.472;2023-04-07T00:48:27;100076.52;;;5.05;100.00
34034;BME280;63481;52.588;22.472;2023-04-07T00:49:21;100072.48;;;5.08;100.00
34034;BME280;63481;52.588;22.472;2023-04-07T00:50:14;100073.00;;;5.08;100.00
34034;BME280;63481;52.588;22.472;2023-04-07T00:51:08;100071.39;;;5.07;100.00
34034;BME280;63481;52.588;22.472;2023-04-07T00:52:02;100071.85;;;5.08;100.00
34034;BME280;63481;52.588;22.472;2023-04-07T00:52:56;100075.05;;;5.07;100.00
34034;BME280;63481;52.588;22.472;2023-04-07T00:53:50;100074.34;;;5.08;100.00
34034;BME280;63481;52.588;22.472;2023-04-07T00:54:43;100071.86;;;5.07;100.00
34034;BME280;63481;52.588;22.472;2023-04-07T00:55:38;100071.68;;;5.07;100.00
34034;BME280;63481;52.588;22.472;2023-04-07T00:56:31;100070.02;;;5.14;100.00
34034;BME280;63481;52.588;22.472;2023-04-07T00:57:25;100072.23;;;5.12;100.00
34034;BME280;63481;52.588;22.472;2023-04-07T00:58:19;100071.47;;;5.09;100.00
34034;BME280;63481;52.588;22.472;2023-04-07T00:59:11;100072.53;;;5.09;100.00
34034;BME280;63481;52.588;22.472;2023-04-07T01:00:05;100073.82;;;5.10;100.00
34034;BME280;63481;52.588;22.472;2023-04-07T01:03:08;100075.83;;;5.16;100.00
34034;BME280;63481;52.588;22.472;2023-04-07T01:04:11;100075.16;;;5.15;100.00
34034;BME280;63481;52.588;22.472;2023-04-07T01:05:12;100073.14;;;5.13;100.00
34034;BME280;63481;52.588;22.472;2023-04-07T01:06:09;100075.71;;;5.12;100.00
34034;BME280;63481;52.588;22.472;2023-04-07T01:07:17;100071.64;;;5.11;100.00
34034;BME280;63481;52.588;22.472;2023-04-07T01:09:37;100069.63;;;5.19;100.00
34034;BME280;63481;52.588;22.472;2023-04-07T01:10:39;100069.10;;;5.23;100.00
34034;BME280;63481;52.588;22.472;2023-04-07T01:11:43;100069.93;;;5.24;100.00
34034;BME280;63481;52.588;22.472;2023-04-07T01:13:02;100068.90;;;5.24;100.00
34034;BME280;63481;52.588;22.472;2023-04-07T01:13:58;100070.09;;;5.22;100.00
34034;BME280;63481;52.588;22.472;2023-04-07T01:15:09;100071.52;;;5.22;100.00
34034;BME280;63481;52.588;22.472;2023-04-07T01:16:10;100069.63;;;5.22;100.00
34034;BME280;63481;52.588;22.472;2023-04-07T01:17:11;100069.07;;;5.24;100.00
34034;BME280;63481;52.588;22.472;2023-04-07T01:18:16;100068.74;;;5.23;100.00
34034;BME280;63481;52.588;22.472;2023-04-07T01:19:31;100065.73;;;5.27;100.00
34034;BME280;63481;52.588;22.472;2023-04-07T01:20:26;100065.15;;;5.28;100.00
34034;BME280;63481;52.588;22.472;2023-04-07T01:21:27;100064.98;;;5.27;100.00
34034;BME280;63481;52.588;22.472;2023-04-07T01:22:26;100065.90;;;5.27;100.00
34034;BME280;63481;52.588;22.472;2023-04-07T01:25:00;100064.71;;;5.34;100.00
34034;BME280;63481;52.588;22.472;2023-04-07T01:26:30;100063.24;;;5.33;100.00
34034;BME280;63481;52.588;22.472;2023-04-07T01:29:44;100060.48;;;5.35;100.00
34034;BME280;63481;52.588;22.472;2023-04-07T01:30:40;100061.94;;;5.33;100.00
34034;BME280;63481;52.588;22.472;2023-04-07T01:31:36;100060.63;;;5.32;100.00
34034;BME280;63481;52.588;22.472;2023-04-07T01:32:33;100062.38;;;5.33;100.00
34034;BME280;63481;52.588;22.472;2023-04-07T01:33:30;100063.15;;;5.35;100.00
34034;BME280;63481;52.588;22.472;2023-04-07T01:34:25;100058.00;;;5.35;100.00
34034;BME280;63481;52.588;22.472;2023-04-07T01:35:21;100058.81;;;5.33;100.00
34034;BME280;63481;52.588;22.472;2023-04-07T01:36:15;100061.16;;;5.33;100.00
34034;BME280;63481;52.588;22.472;2023-04-07T01:37:10;100060.90;;;5.36;100.00
34034;BME280;63481;52.588;22.472;2023-04-07T01:38:04;100057.72;;;5.36;100.00
34034;BME280;63481;52.588;22.472;2023-04-07T01:38:59;100059.02;;;5.36;100.00
34034;BME280;63481;52.588;22.472;2023-04-07T01:39:53;100057.80;;;5.43;100.00
34034;BME280;63481;52.588;22.472;2023-04-07T01:40:48;100057.66;;;5.45;100.00
34034;BME280;63481;52.588;22.472;2023-04-07T01:41:42;100055.61;;;5.46;100.00
34034;BME280;63481;52.588;22.472;2023-04-07T01:42:38;100056.59;;;5.43;100.00
34034;BME280;63481;52.588;22.472;2023-04-07T01:43:32;100055.27;;;5.43;100.00
34034;BME280;63481;52.588;22.472;2023-04-07T01:44:26;100054.95;;;5.45;100.00
34034;BME280;63481;52.588;22.472;2023-04-07T01:45:19;100053.73;;;5.45;100.00
34034;BME280;63481;52.588;22.472;2023-04-07T01:46:14;100054.79;;;5.45;100.00
34034;BME280;63481;52.588;22.472;2023-04-07T01:47:08;100057.24;;;5.44;100.00
34034;BME280;63481;52.588;22.472;2023-04-07T01:48:04;100055.48;;;5.45;100.00
34034;BME280;63481;52.588;22.472;2023-04-07T01:48:59;100056.05;;;5.43;100.00
34034;BME280;63481;52.588;22.472;2023-04-07T01:49:54;100053.36;;;5.42;100.00
34034;BME280;63481;52.588;22.472;2023-04-07T01:50:49;100053.72;;;5.42;100.00
34034;BME280;63481;52.588;22.472;2023-04-07T01:51:43;100051.60;;;5.42;100.00
34034;BME280;63481;52.588;22.472;2023-04-07T01:52:42;100051.05;;;5.43;100.00
34034;BME280;63481;52.588;22.472;2023-04-07T01:53:36;100055.54;;;5.44;100.00
34034;BME280;63481;52.588;22.472;2023-04-07T01:54:30;100054.92;;;5.46;100.00
34034;BME280;63481;52.588;22.472;2023-04-07T01:55:24;100051.98;;;5.45;100.00
34034;BME280;63481;52.588;22.472;2023-04-07T01:56:27;100056.80;;;5.49;100.00
34034;BME280;63481;52.588;22.472;2023-04-07T01:57:22;100052.55;;;5.47;100.00
34034;BME280;63481;52.588;22.472;2023-04-07T01:58:19;100055.77;;;5.50;100.00
34034;BME280;63481;52.588;22.472;2023-04-07T01:59:13;100052.20;;;5.51;100.00
34034;BME280;63481;52.588;22.472;2023-04-07T02:00:07;100056.05;;;5.52;100.00
34034;BME280;63481;52.588;22.472;2023-04-07T02:01:08;100054.11;;;5.51;100.00
34034;BME280;63481;52.588;22.472;2023-04-07T02:02:01;100050.50;;;5.51;100.00
34034;BME280;63481;52.588;22.472;2023-04-07T02:02:58;100050.26;;;5.55;100.00
34034;BME280;63481;52.588;22.472;2023-04-07T02:04:20;100051.36;;;5.57;100.00
34034;BME280;63481;52.588;22.472;2023-04-07T02:05:18;100047.90;;;5.60;100.00
34034;BME280;63481;52.588;22.472;2023-04-07T02:06:18;100050.50;;;5.59;100.00
34034;BME280;63481;52.588;22.472;2023-04-07T02:07:19;100053.94;;;5.58;100.00
34034;BME280;63481;52.588;22.472;2023-04-07T02:08:16;100052.09;;;5.57;100.00
34034;BME280;63481;52.588;22.472;2023-04-07T02:09:12;100050.58;;;5.58;100.00
34034;BME280;63481;52.588;22.472;2023-04-07T02:10:10;100053.27;;;5.57;100.00
34034;BME280;63481;52.588;22.472;2023-04-07T02:11:04;100050.83;;;5.59;100.00
34034;BME280;63481;52.588;22.472;2023-04-07T02:12:01;100049.02;;;5.63;100.00
34034;BME280;63481;52.588;22.472;2023-04-07T02:12:59;100050.45;;;5.64;100.00
34034;BME280;63481;52.588;22.472;2023-04-07T02:13:55;100050.75;;;5.64;100.00
34034;BME280;63481;52.588;22.472;2023-04-07T02:14:48;100048.63;;;5.64;100.00
34034;BME280;63481;52.588;22.472;2023-04-07T02:15:42;100047.77;;;5.66;100.00
34034;BME280;63481;52.588;22.472;2023-04-07T02:16:38;100050.47;;;5.69;100.00
34034;BME280;63481;52.588;22.472;2023-04-07T02:17:35;100045.58;;;5.69;100.00
34034;BME280;63481;52.588;22.472;2023-04-07T02:18:30;100047.50;;;5.72;100.00
34034;BME280;63481;52.588;22.472;2023-04-07T02:19:23;100045.92;;;5.71;100.00
34034;BME280;63481;52.588;22.472;2023-04-07T02:20:16;100048.13;;;5.66;100.00
34034;BME280;63481;52.588;22.472;2023-04-07T02:21:10;100046.55;;;5.64;100.00
34034;BME280;63481;52.588;22.472;2023-04-07T02:22:04;100047.76;;;5.70;100.00
34034;BME280;63481;52.588;22.472;2023-04-07T02:22:58;100047.70;;;5.69;100.00
34034;BME280;63481;52.588;22.472;2023-04-07T02:23:51;100047.97;;;5.68;100.00
34034;BME280;63481;52.588;22.472;2023-04-07T02:24:43;100048.00;;;5.68;100.00
34034;BME280;63481;52.588;22.472;2023-04-07T02:25:36;100047.52;;;5.71;100.00
34034;BME280;63481;52.588;22.472;2023-04-07T02:26:33;100051.13;;;5.70;100.00
34034;BME280;63481;52.588;22.472;2023-04-07T02:27:26;100046.44;;;5.72;100.00
34034;BME280;63481;52.588;22.472;2023-04-07T02:28:19;100046.00;;;5.73;100.00
34034;BME280;63481;52.588;22.472;2023-04-07T02:29:12;100046.61;;;5.75;100.00
34034;BME280;63481;52.588;22.472;2023-04-07T02:30:05;100044.75;;;5.73;100.00
34034;BME280;63481;52.588;22.472;2023-04-07T02:30:58;100047.52;;;5.74;100.00
34034;BME280;63481;52.588;22.472;2023-04-07T02:31:51;100046.01;;;5.76;100.00
34034;BME280;63481;52.588;22.472;2023-04-07T02:32:44;100047.30;;;5.75;100.00
34034;BME280;63481;52.588;22.472;2023-04-07T02:33:37;100047.47;;;5.71;100.00
34034;BME280;63481;52.588;22.472;2023-04-07T02:34:29;100053.27;;;5.68;100.00
34034;BME280;63481;52.588;22.472;2023-04-07T02:35:22;100049.67;;;5.68;100.00
34034;BME280;63481;52.588;22.472;2023-04-07T02:36:15;100054.94;;;5.72;100.00
34034;BME280;63481;52.588;22.472;2023-04-07T02:37:08;100057.16;;;5.76;100.00
34034;BME280;63481;52.588;22.472;2023-04-07T02:38:00;100055.94;;;5.76;100.00
34034;BME280;63481;52.588;22.472;2023-04-07T02:38:53;100055.77;;;5.78;100.00
34034;BME280;63481;52.588;22.472;2023-04-07T02:39:46;100059.92;;;5.80;100.00
34034;BME280;63481;52.588;22.472;2023-04-07T02:40:39;100058.39;;;5.81;100.00
34034;BME280;63481;52.588;22.472;2023-04-07T02:41:32;100057.21;;;5.81;100.00
34034;BME280;63481;52.588;22.472;2023-04-07T02:42:25;100055.65;;;5.81;100.00
34034;BME280;63481;52.588;22.472;2023-04-07T02:43:19;100057.00;;;5.81;100.00
34034;BME280;63481;52.588;22.472;2023-04-07T02:44:12;100053.64;;;5.83;100.00
34034;BME280;63481;52.588;22.472;2023-04-07T02:45:07;100052.95;;;5.80;100.00
34034;BME280;63481;52.588;22.472;2023-04-07T02:46:03;100056.73;;;5.78;100.00
34034;BME280;63481;52.588;22.472;2023-04-07T02:46:56;100058.75;;;5.81;100.00
34034;BME280;63481;52.588;22.472;2023-04-07T02:47:49;100057.52;;;5.78;100.00
34034;BME280;63481;52.588;22.472;2023-04-07T02:48:43;100056.80;;;5.79;100.00
34034;BME280;63481;52.588;22.472;2023-04-07T02:49:36;100056.75;;;5.79;100.00
34034;BME280;63481;52.588;22.472;2023-04-07T02:50:28;100055.39;;;5.80;100.00
34034;BME280;63481;52.588;22.472;2023-04-07T02:51:21;100059.66;;;5.80;100.00
34034;BME280;63481;52.588;22.472;2023-04-07T02:52:15;100060.30;;;5.79;100.00
34034;BME280;63481;52.588;22.472;2023-04-07T02:53:09;100058.29;;;5.78;100.00
34034;BME280;63481;52.588;22.472;2023-04-07T02:54:03;100058.50;;;5.77;100.00
34034;BME280;63481;52.588;22.472;2023-04-07T02:54:55;100057.56;;;5.75;100.00
34034;BME280;63481;52.588;22.472;2023-04-07T02:55:51;100058.12;;;5.72;100.00
34034;BME280;63481;52.588;22.472;2023-04-07T02:56:44;100058.83;;;5.73;100.00
34034;BME280;63481;52.588;22.472;2023-04-07T02:57:38;100060.33;;;5.74;100.00
34034;BME280;63481;52.588;22.472;2023-04-07T02:58:34;100064.44;;;5.78;100.00
34034;BME280;63481;52.588;22.472;2023-04-07T02:59:28;100059.12;;;5.77;100.00
34034;BME280;63481;52.588;22.472;2023-04-07T03:00:21;100058.39;;;5.82;100.00
34034;BME280;63481;52.588;22.472;2023-04-07T03:01:26;100058.30;;;5.79;100.00
34034;BME280;63481;52.588;22.472;2023-04-07T03:02:19;100058.92;;;5.77;100.00
34034;BME280;63481;52.588;22.472;2023-04-07T03:03:13;100057.55;;;5.80;100.00
34034;BME280;63481;52.588;22.472;2023-04-07T03:04:08;100060.27;;;5.79;100.00
34034;BME280;63481;52.588;22.472;2023-04-07T03:05:01;100057.37;;;5.77;100.00
34034;BME280;63481;52.588;22.472;2023-04-07T03:05:56;100059.95;;;5.77;100.00
34034;BME280;63481;52.588;22.472;2023-04-07T03:06:50;100056.69;;;5.75;100.00
34034;BME280;63481;52.588;22.472;2023-04-07T03:07:44;100057.41;;;5.76;100.00
34034;BME280;63481;52.588;22.472;2023-04-07T03:08:37;100055.20;;;5.76;100.00
34034;BME280;63481;52.588;22.472;2023-04-07T03:09:31;100060.98;;;5.78;100.00
34034;BME280;63481;52.588;22.472;2023-04-07T03:10:24;100057.33;;;5.78;100.00
34034;BME280;63481;52.588;22.472;2023-04-07T03:11:18;100062.66;;;5.80;100.00
34034;BME280;63481;52.588;22.472;2023-04-07T03:12:11;100061.30;;;5.78;100.00
34034;BME280;63481;52.588;22.472;2023-04-07T03:13:05;100060.45;;;5.77;100.00
34034;BME280;63481;52.588;22.472;2023-04-07T03:13:59;100062.23;;;5.80;100.00
34034;BME280;63481;52.588;22.472;2023-04-07T03:14:54;100062.76;;;5.77;100.00
34034;BME280;63481;52.588;22.472;2023-04-07T03:15:47;100060.83;;;5.79;100.00
34034;BME280;63481;52.588;22.472;2023-04-07T03:16:41;100062.75;;;5.82;100.00
34034;BME280;63481;52.588;22.472;2023-04-07T03:17:36;100062.15;;;5.82;100.00
34034;BME280;63481;52.588;22.472;2023-04-07T03:18:28;100064.88;;;5.82;100.00
34034;BME280;63481;52.588;22.472;2023-04-07T03:19:25;100062.55;;;5.82;100.00
34034;BME280;63481;52.588;22.472;2023-04-07T03:20:18;100063.01;;;5.83;100.00
34034;BME280;63481;52.588;22.472;2023-04-07T03:21:11;100059.30;;;5.89;100.00
34034;BME280;63481;52.588;22.472;2023-04-07T03:22:04;100062.66;;;5.90;100.00
34034;BME280;63481;52.588;22.472;2023-04-07T03:22:59;100063.28;;;5.88;100.00
34034;BME280;63481;52.588;22.472;2023-04-07T03:23:53;100063.92;;;5.91;100.00
34034;BME280;63481;52.588;22.472;2023-04-07T03:24:46;100062.52;;;5.88;100.00
34034;BME280;63481;52.588;22.472;2023-04-07T03:25:40;100064.04;;;5.92;100.00
34034;BME280;63481;52.588;22.472;2023-04-07T03:26:33;100063.89;;;5.96;100.00
34034;BME280;63481;52.588;22.472;2023-04-07T03:27:26;100065.12;;;5.96;100.00
34034;BME280;63481;52.588;22.472;2023-04-07T03:28:19;100064.64;;;5.94;100.00
34034;BME280;63481;52.588;22.472;2023-04-07T03:29:13;100065.27;;;5.95;100.00
34034;BME280;63481;52.588;22.472;2023-04-07T03:30:08;100066.50;;;5.96;100.00
34034;BME280;63481;52.588;22.472;2023-04-07T03:31:00;100070.72;;;5.95;100.00
34034;BME280;63481;52.588;22.472;2023-04-07T03:31:53;100065.27;;;5.98;100.00
34034;BME280;63481;52.588;22.472;2023-04-07T03:32:48;100071.38;;;5.98;100.00
34034;BME280;63481;52.588;22.472;2023-04-07T03:33:41;100069.81;;;5.97;100.00
34034;BME280;63481;52.588;22.472;2023-04-07T03:34:34;100069.63;;;5.95;100.00
34034;BME280;63481;52.588;22.472;2023-04-07T03:35:27;100068.77;;;5.98;100.00
34034;BME280;63481;52.588;22.472;2023-04-07T03:36:20;100070.61;;;5.96;100.00
34034;BME280;63481;52.588;22.472;2023-04-07T03:37:13;100069.38;;;5.96;100.00
34034;BME280;63481;52.588;22.472;2023-04-07T03:38:06;100070.27;;;5.96;100.00
34034;BME280;63481;52.588;22.472;2023-04-07T03:38:59;100067.23;;;5.96;100.00
34034;BME280;63481;52.588;22.472;2023-04-07T03:39:53;100068.59;;;5.94;100.00
34034;BME280;63481;52.588;22.472;2023-04-07T03:40:58;100069.48;;;5.94;100.00
34034;BME280;63481;52.588;22.472;2023-04-07T03:41:51;100069.88;;;5.95;100.00
34034;BME280;63481;52.588;22.472;2023-04-07T03:42:45;100070.44;;;5.93;100.00
34034;BME280;63481;52.588;22.472;2023-04-07T03:43:39;100073.11;;;5.93;100.00
34034;BME280;63481;52.588;22.472;2023-04-07T03:44:32;100067.48;;;5.94;100.00
34034;BME280;63481;52.588;22.472;2023-04-07T03:45:25;100066.82;;;5.95;100.00
34034;BME280;63481;52.588;22.472;2023-04-07T03:46:20;100068.80;;;5.96;100.00
34034;BME280;63481;52.588;22.472;2023-04-07T03:47:13;100067.08;;;6.01;100.00
34034;BME280;63481;52.588;22.472;2023-04-07T03:48:06;100068.56;;;6.00;100.00
34034;BME280;63481;52.588;22.472;2023-04-07T03:49:06;100067.06;;;6.01;100.00
34034;BME280;63481;52.588;22.472;2023-04-07T03:49:59;100065.71;;;6.01;100.00
34034;BME280;63481;52.588;22.472;2023-04-07T03:50:53;100067.56;;;5.99;100.00
34034;BME280;63481;52.588;22.472;2023-04-07T03:51:46;100065.02;;;6.00;100.00
34034;BME280;63481;52.588;22.472;2023-04-07T03:52:41;100066.91;;;5.99;100.00
34034;BME280;63481;52.588;22.472;2023-04-07T03:53:45;100067.27;;;5.99;100.00
34034;BME280;63481;52.588;22.472;2023-04-07T03:54:46;100070.97;;;6.01;100.00
34034;BME280;63481;52.588;22.472;2023-04-07T03:55:39;100066.49;;;6.01;100.00
34034;BME280;63481;52.588;22.472;2023-04-07T03:56:38;100068.10;;;6.00;100.00
34034;BME280;63481;52.588;22.472;2023-04-07T03:57:31;100069.49;;;5.99;100.00
34034;BME280;63481;52.588;22.472;2023-04-07T03:58:24;100068.70;;;5.99;100.00
34034;BME280;63481;52.588;22.472;2023-04-07T03:59:17;100068.04;;;6.00;100.00
34034;BME280;63481;52.588;22.472;2023-04-07T04:00:19;100070.16;;;6.02;100.00
34034;BME280;63481;52.588;22.472;2023-04-07T04:01:20;100067.19;;;6.02;100.00
34034;BME280;63481;52.588;22.472;2023-04-07T04:02:14;100069.64;;;6.08;100.00
34034;BME280;63481;52.588;22.472;2023-04-07T04:03:08;100069.14;;;6.06;100.00
34034;BME280;63481;52.588;22.472;2023-04-07T04:04:04;100074.63;;;6.06;100.00
34034;BME280;63481;52.588;22.472;2023-04-07T04:04:57;100071.49;;;6.08;100.00
34034;BME280;63481;52.588;22.472;2023-04-07T04:05:51;100070.77;;;6.07;100.00
34034;BME280;63481;52.588;22.472;2023-04-07T04:06:46;100071.29;;;6.09;100.00
34034;BME280;63481;52.588;22.472;2023-04-07T04:07:54;100067.84;;;6.12;100.00
34034;BME280;63481;52.588;22.472;2023-04-07T04:08:48;100071.23;;;6.10;100.00
34034;BME280;63481;52.588;22.472;2023-04-07T04:09:41;100072.64;;;6.07;100.00
34034;BME280;63481;52.588;22.472;2023-04-07T04:10:35;100070.14;;;6.08;100.00
34034;BME280;63481;52.588;22.472;2023-04-07T04:11:28;100070.44;;;6.07;100.00
34034;BME280;63481;52.588;22.472;2023-04-07T04:12:24;100071.86;;;6.07;100.00
34034;BME280;63481;52.588;22.472;2023-04-07T04:13:31;100074.84;;;6.10;100.00
34034;BME280;63481;52.588;22.472;2023-04-07T04:14:25;100074.01;;;6.08;100.00
34034;BME280;63481;52.588;22.472;2023-04-07T04:15:23;100074.34;;;6.08;100.00
34034;BME280;63481;52.588;22.472;2023-04-07T04:16:16;100076.65;;;6.08;100.00
34034;BME280;63481;52.588;22.472;2023-04-07T04:17:10;100078.64;;;6.08;100.00
34034;BME280;63481;52.588;22.472;2023-04-07T04:18:08;100077.67;;;6.08;100.00
34034;BME280;63481;52.588;22.472;2023-04-07T04:19:01;100080.02;;;6.07;100.00
34034;BME280;63481;52.588;22.472;2023-04-07T04:19:56;100079.94;;;6.10;100.00
34034;BME280;63481;52.588;22.472;2023-04-07T04:21:02;100082.70;;;6.10;100.00
34034;BME280;63481;52.588;22.472;2023-04-07T04:21:56;100084.27;;;6.08;100.00
34034;BME280;63481;52.588;22.472;2023-04-07T04:22:50;100084.73;;;6.08;100.00
34034;BME280;63481;52.588;22.472;2023-04-07T04:23:43;100085.55;;;6.09;100.00
34034;BME280;63481;52.588;22.472;2023-04-07T04:24:36;100090.46;;;6.10;100.00
34034;BME280;63481;52.588;22.472;2023-04-07T04:25:29;100089.48;;;6.11;100.00
34034;BME280;63481;52.588;22.472;2023-04-07T04:26:22;100091.61;;;6.09;100.00
34034;BME280;63481;52.588;22.472;2023-04-07T04:27:18;100088.66;;;6.08;100.00
34034;BME280;63481;52.588;22.472;2023-04-07T04:28:13;100088.70;;;6.10;100.00
34034;BME280;63481;52.588;22.472;2023-04-07T04:29:06;100088.15;;;6.14;100.00
34034;BME280;63481;52.588;22.472;2023-04-07T04:29:59;100088.00;;;6.15;100.00
34034;BME280;63481;52.588;22.472;2023-04-07T04:31:02;100087.62;;;6.12;100.00
34034;BME280;63481;52.588;22.472;2023-04-07T04:31:59;100089.21;;;6.12;100.00
34034;BME280;63481;52.588;22.472;2023-04-07T04:32:53;100090.92;;;6.11;100.00
34034;BME280;63481;52.588;22.472;2023-04-07T04:34:10;100088.96;;;6.10;100.00
34034;BME280;63481;52.588;22.472;2023-04-07T04:35:04;100090.52;;;6.07;100.00
34034;BME280;63481;52.588;22.472;2023-04-07T04:35:59;100091.52;;;6.08;100.00
34034;BME280;63481;52.588;22.472;2023-04-07T04:36:53;100088.53;;;6.10;100.00
34034;BME280;63481;52.588;22.472;2023-04-07T04:37:47;100090.36;;;6.10;100.00
34034;BME280;63481;52.588;22.472;2023-04-07T04:38:41;100092.75;;;6.09;100.00
34034;BME280;63481;52.588;22.472;2023-04-07T04:39:45;100097.59;;;6.08;100.00
34034;BME280;63481;52.588;22.472;2023-04-07T04:40:39;100094.23;;;6.09;100.00
34034;BME280;63481;52.588;22.472;2023-04-07T04:41:33;100097.16;;;6.09;100.00
34034;BME280;63481;52.588;22.472;2023-04-07T04:42:27;100097.08;;;6.10;100.00
34034;BME280;63481;52.588;22.472;2023-04-07T04:43:23;100094.23;;;6.11;100.00
34034;BME280;63481;52.588;22.472;2023-04-07T04:44:17;100098.48;;;6.11;100.00
34034;BME280;63481;52.588;22.472;2023-04-07T04:45:10;100094.84;;;6.12;100.00
34034;BME280;63481;52.588;22.472;2023-04-07T04:46:04;100095.61;;;6.15;100.00
34034;BME280;63481;52.588;22.472;2023-04-07T04:47:02;100092.64;;;6.16;100.00
34034;BME280;63481;52.588;22.472;2023-04-07T04:47:56;100090.32;;;6.15;100.00
34034;BME280;63481;52.588;22.472;2023-04-07T04:48:49;100092.69;;;6.14;100.00
34034;BME280;63481;52.588;22.472;2023-04-07T04:49:45;100089.91;;;6.15;100.00
34034;BME280;63481;52.588;22.472;2023-04-07T04:50:40;100092.52;;;6.15;100.00
34034;BME280;63481;52.588;22.472;2023-04-07T04:51:36;100092.15;;;6.15;100.00
34034;BME280;63481;52.588;22.472;2023-04-07T04:52:35;100092.52;;;6.17;100.00